Time;durP1;ratioP1;P1;durP2;ratioP2;P2;SDS_P1;SDS_P2;PMS_P1;PMS_P2;Temp;Humidity;BMP_temperature;BMP_pressure;BME280_temperature;BME280_humidity;BME280_pressure;Samples;Min_cycle;Max_cycle;Signal;HPM_P1;HPM_P2
2023/06/06 00:02:16;;;;;;;2.10;2.00;;;18.20;99.90;;;;;;5059042;23;20203;-75
2023/06/06 00:04:45;;;;;;;1.80;1.70;;;18.20;99.90;;;;;;5052863;28;20524;-75
2023/06/06 00:07:12;;;;;;;1.70;1.60;;;18.10;99.90;;;;;;5054433;28;20237;-75
2023/06/06 00:09:38;;;;;;;3.07;2.00;;;18.00;99.90;;;;;;5064497;28;20152;-76
2023/06/06 00:12:04;;;;;;;2.03;1.90;;;18.00;99.90;;;;;;5055413;28;20819;-76
2023/06/06 00:14:31;;;;;;;2.13;2.03;;;18.00;99.90;;;;;;5052491;28;20516;-74
2023/06/06 00:16:58;;;;;;;2.23;2.13;;;18.00;99.90;;;;;;5052617;28;20178;-75
2023/06/06 00:19:23;;;;;;;2.50;2.30;;;18.00;99.90;;;;;;5052409;28;20191;-75
2023/06/06 00:21:49;;;;;;;2.37;2.17;;;18.00;99.90;;;;;;5052791;28;20181;-75
2023/06/06 00:24:15;;;;;;;1.90;1.80;;;18.00;99.90;;;;;;5052086;28;20183;-74
2023/06/06 00:26:41;;;;;;;2.80;2.27;;;17.90;99.90;;;;;;5052296;28;20226;-75
2023/06/06 00:29:06;;;;;;;2.20;2.00;;;17.90;99.90;;;;;;5052253;28;20257;-74
2023/06/06 00:31:32;;;;;;;3.83;2.33;;;17.80;99.90;;;;;;5051049;28;20176;-75
2023/06/06 00:33:57;;;;;;;2.67;2.47;;;17.80;99.90;;;;;;5051912;28;20617;-75
2023/06/06 00:36:23;;;;;;;2.53;2.33;;;17.70;99.90;;;;;;5051167;28;20252;-74
2023/06/06 00:38:50;;;;;;;2.73;2.53;;;17.70;99.90;;;;;;5051400;28;20200;-75
2023/06/06 00:41:15;;;;;;;2.80;2.60;;;17.70;99.90;;;;;;5050756;28;20163;-75
2023/06/06 00:43:41;;;;;;;2.43;2.30;;;17.60;99.90;;;;;;5050526;28;20187;-74
2023/06/06 00:46:06;;;;;;;2.80;2.60;;;17.60;99.90;;;;;;5052025;28;20194;-75
2023/06/06 00:48:32;;;;;;;2.60;2.40;;;17.60;99.90;;;;;;5051622;28;20172;-75
2023/06/06 00:50:59;;;;;;;2.60;2.40;;;17.60;99.90;;;;;;5052300;28;20204;-74
2023/06/06 00:53:25;;;;;;;6.13;2.67;;;17.40;99.90;;;;;;5051744;28;20806;-75
2023/06/06 00:55:51;;;;;;;2.73;2.53;;;17.50;99.90;;;;;;5051726;28;20198;-76
2023/06/06 00:58:17;;;;;;;4.13;2.37;;;17.50;99.90;;;;;;5050413;28;20187;-75
2023/06/06 01:00:43;;;;;;;4.07;2.67;;;17.40;99.90;;;;;;5051935;28;20199;-74
2023/06/06 01:03:14;;;;;;;2.63;2.43;;;17.40;99.90;;;;;;5049892;28;20289;-74
2023/06/06 01:05:40;;;;;;;2.97;2.70;;;17.40;99.90;;;;;;5051663;28;20258;-74
2023/06/06 01:08:06;;;;;;;3.00;2.67;;;17.40;99.90;;;;;;5051810;28;20202;-74
2023/06/06 01:10:34;;;;;;;5.93;2.70;;;17.30;99.90;;;;;;5051514;28;20647;-74
2023/06/06 01:13:15;;;;;;;2.93;2.73;;;17.20;99.90;;;;;;5051312;28;20191;-74
2023/06/06 01:16:07;;;;;;;2.70;2.50;;;17.10;99.90;;;;;;5050248;28;20171;-74
2023/06/06 01:18:33;;;;;;;3.10;2.90;;;17.20;99.90;;;;;;5051401;28;20186;-74
2023/06/06 01:20:59;;;;;;;3.13;2.90;;;17.10;99.90;;;;;;5051366;28;20171;-74
2023/06/06 01:23:27;;;;;;;2.60;2.40;;;17.10;99.90;;;;;;5051372;28;20195;-74
2023/06/06 01:25:53;;;;;;;3.13;2.83;;;17.10;99.90;;;;;;5049647;28;20183;-74
2023/06/06 01:28:19;;;;;;;3.63;3.10;;;17.10;99.90;;;;;;5051536;28;20742;-74
2023/06/06 01:30:45;;;;;;;2.73;2.40;;;;;;;;;;5051464;28;20248;-74
2023/06/06 01:33:44;;;;;;;3.23;3.00;;;16.90;99.90;;;;;;5051192;28;20665;-75
2023/06/06 01:36:30;;;;;;;3.10;2.80;;;16.90;99.90;;;;;;5048273;28;20229;-74
2023/06/06 01:39:17;;;;;;;3.53;2.67;;;16.90;99.90;;;;;;5051124;28;20190;-74
2023/06/06 01:41:46;;;;;;;2.93;2.70;;;16.80;99.90;;;;;;5050371;28;20182;-74
2023/06/06 01:44:13;;;;;;;3.33;3.03;;;16.80;99.90;;;;;;5049354;28;20197;-74
2023/06/06 01:46:40;;;;;;;3.17;2.60;;;16.80;99.90;;;;;;5051075;28;20170;-74
2023/06/06 01:49:07;;;;;;;2.43;2.23;;;16.80;99.90;;;;;;5051313;28;20171;-74
2023/06/06 01:51:33;;;;;;;3.00;2.70;;;16.70;99.90;;;;;;5050877;28;20189;-74
2023/06/06 01:53:58;;;;;;;2.57;2.43;;;16.60;99.90;;;;;;5050052;28;20202;-74
2023/06/06 01:56:26;;;;;;;3.30;2.83;;;16.60;99.90;;;;;;5051021;28;20550;-74
2023/06/06 01:58:52;;;;;;;3.30;2.70;;;16.70;99.90;;;;;;5049954;28;20205;-73
2023/06/06 02:01:17;;;;;;;3.23;2.90;;;16.60;99.90;;;;;;5051016;28;20186;-74
2023/06/06 02:03:43;;;;;;;2.87;2.67;;;16.60;99.90;;;;;;5050766;28;20581;-74
2023/06/06 02:06:08;;;;;;;3.10;2.90;;;16.50;99.90;;;;;;5050889;28;20179;-74
2023/06/06 02:08:34;;;;;;;3.00;2.80;;;16.50;99.90;;;;;;5050945;28;20179;-74
2023/06/06 02:10:59;;;;;;;2.90;2.70;;;16.40;99.90;;;;;;5049695;28;20174;-74
2023/06/06 02:13:26;;;;;;;2.70;2.50;;;16.40;99.90;;;;;;5050978;28;20190;-75
2023/06/06 02:15:51;;;;;;;3.00;2.80;;;16.40;99.90;;;;;;5050666;28;20229;-74
2023/06/06 02:18:17;;;;;;;3.43;3.13;;;16.40;99.90;;;;;;5049593;28;20174;-74
2023/06/06 02:20:42;;;;;;;3.47;3.17;;;16.30;99.90;;;;;;5050721;28;20206;-74
2023/06/06 02:23:07;;;;;;;2.87;2.67;;;16.20;99.90;;;;;;5049492;28;20191;-74
2023/06/06 02:25:33;;;;;;;3.23;2.80;;;16.30;99.90;;;;;;5050660;28;20261;-74
2023/06/06 02:27:59;;;;;;;3.37;3.07;;;16.20;99.90;;;;;;5049558;28;20170;-74
2023/06/06 02:30:24;;;;;;;2.67;2.47;;;16.30;99.90;;;;;;5050247;28;20178;-74
2023/06/06 02:32:50;;;;;;;3.97;2.90;;;16.30;99.90;;;;;;5050480;28;20194;-74
2023/06/06 02:35:18;;;;;;;3.00;2.80;;;16.30;99.90;;;;;;5039983;28;20253;-74
2023/06/06 02:37:44;;;;;;;3.00;2.70;;;16.30;99.90;;;;;;5046282;28;20187;-74
2023/06/06 02:40:11;;;;;;;3.30;3.00;;;16.30;99.90;;;;;;5048846;28;20198;-74
2023/06/06 02:42:38;;;;;;;3.00;2.70;;;16.20;99.90;;;;;;5037442;28;20221;-74
2023/06/06 02:45:05;;;;;;;3.13;2.80;;;16.20;99.90;;;;;;5048967;28;20174;-74
2023/06/06 02:47:31;;;;;;;3.30;3.00;;;16.20;99.90;;;;;;5037941;28;20582;-74
2023/06/06 02:49:56;;;;;;;3.00;2.80;;;16.10;99.90;;;;;;5050730;28;20243;-73
2023/06/06 02:52:23;;;;;;;4.10;3.30;;;16.10;99.90;;;;;;5049284;28;20218;-74
2023/06/06 02:54:48;;;;;;;3.50;3.20;;;16.10;99.90;;;;;;5050011;28;20205;-74
2023/06/06 02:57:14;;;;;;;4.23;3.03;;;16.10;99.90;;;;;;5050649;28;20202;-73
2023/06/06 02:59:39;;;;;;;3.00;2.80;;;16.20;99.90;;;;;;5050118;28;20213;-73
2023/06/06 03:02:05;;;;;;;3.30;3.00;;;16.10;99.90;;;;;;5037091;28;20171;-74
2023/06/06 03:04:31;;;;;;;3.43;3.10;;;16.10;99.90;;;;;;5053722;28;20166;-74
2023/06/06 03:06:56;;;;;;;2.77;2.57;;;16.10;99.90;;;;;;5053802;28;20672;-74
2023/06/06 03:09:24;;;;;;;3.17;2.93;;;16.10;99.90;;;;;;5054093;28;20182;-74
2023/06/06 03:11:50;;;;;;;3.80;2.90;;;16.10;99.90;;;;;;5052671;28;20174;-75
2023/06/06 03:14:15;;;;;;;3.30;3.00;;;16.00;99.90;;;;;;5053658;28;20723;-73
2023/06/06 03:16:41;;;;;;;3.07;2.80;;;16.00;99.90;;;;;;5053643;28;20182;-74
2023/06/06 03:19:07;;;;;;;3.30;3.00;;;16.00;99.90;;;;;;5053366;28;20200;-74
2023/06/06 03:21:33;;;;;;;3.97;3.57;;;15.90;99.90;;;;;;5053719;28;20166;-74
2023/06/06 03:23:59;;;;;;;3.50;3.20;;;15.90;99.90;;;;;;5052535;28;20265;-74
2023/06/06 03:26:26;;;;;;;3.63;3.03;;;15.90;99.90;;;;;;5053323;28;20232;-74
2023/06/06 03:28:52;;;;;;;3.37;3.07;;;15.90;99.90;;;;;;5052384;28;20202;-74
2023/06/06 03:31:23;;;;;;;3.23;3.03;;;15.90;99.90;;;;;;5053138;28;20202;-74
2023/06/06 03:33:51;;;;;;;2.90;2.70;;;15.90;99.90;;;;;;5051713;28;20194;-75
2023/06/06 03:36:17;;;;;;;3.50;3.00;;;15.90;99.90;;;;;;5053279;28;20179;-75
2023/06/06 03:38:43;;;;;;;4.10;3.30;;;15.90;99.90;;;;;;5051710;28;20544;-74
2023/06/06 03:41:08;;;;;;;3.20;3.00;;;15.90;99.90;;;;;;5052233;28;20659;-74
2023/06/06 03:43:35;;;;;;;2.90;2.70;;;15.90;99.90;;;;;;5053083;28;20190;-74
2023/06/06 03:46:01;;;;;;;3.23;3.03;;;15.90;99.90;;;;;;5054146;28;20253;-75
2023/06/06 03:48:26;;;;;;;3.17;2.60;;;15.90;99.90;;;;;;5053053;28;20206;-76
2023/06/06 03:50:52;;;;;;;3.50;3.20;;;16.00;99.90;;;;;;5053898;28;21340;-74
2023/06/06 03:53:18;;;;;;;3.20;2.90;;;16.00;99.90;;;;;;5055757;28;20286;-74
2023/06/06 03:55:44;;;;;;;3.10;2.80;;;16.00;99.90;;;;;;5052117;28;20174;-73
2023/06/06 03:58:10;;;;;;;2.90;2.70;;;16.00;99.90;;;;;;5052817;28;20182;-76
2023/06/06 04:00:39;;;;;;;3.23;3.00;;;16.00;99.90;;;;;;5055340;28;20209;-75
2023/06/06 04:03:05;;;;;;;3.20;2.90;;;16.00;99.90;;;;;;5041376;28;20206;-75
2023/06/06 04:05:32;;;;;;;3.53;3.23;;;16.00;99.90;;;;;;5052479;28;20190;-75
2023/06/06 04:07:58;;;;;;;2.83;2.63;;;16.00;99.90;;;;;;5052410;28;20224;-76
2023/06/06 04:10:24;;;;;;;3.27;2.97;;;16.00;99.90;;;;;;5052626;28;20698;-75
2023/06/06 04:12:50;;;;;;;3.20;2.90;;;16.10;99.90;;;;;;5051478;28;20226;-76
2023/06/06 04:15:16;;;;;;;2.97;2.63;;;16.10;99.90;;;;;;5052076;28;20251;-76
2023/06/06 04:17:41;;;;;;;4.23;2.90;;;16.20;99.90;;;;;;5052815;28;20174;-76
2023/06/06 04:20:08;;;;;;;3.90;3.00;;;16.10;99.90;;;;;;5052455;28;20714;-75
2023/06/06 04:22:35;;;;;;;2.97;2.77;;;16.10;99.90;;;;;;5052435;28;20603;-76
2023/06/06 04:25:00;;;;;;;4.33;2.87;;;16.10;99.90;;;;;;5051265;28;20805;-76
2023/06/06 04:27:26;;;;;;;2.73;2.57;;;16.10;99.90;;;;;;5052492;28;20192;-76
2023/06/06 04:29:52;;;;;;;3.10;2.80;;;16.20;99.90;;;;;;5052582;28;20532;-76
2023/06/06 04:32:21;;;;;;;3.20;2.93;;;16.30;99.90;;;;;;5050787;28;20206;-76
2023/06/06 04:34:51;;;;;;;6.13;2.90;;;16.30;99.90;;;;;;5051022;28;20182;-76
2023/06/06 04:37:17;;;;;;;3.33;2.77;;;16.20;99.90;;;;;;5037936;28;20544;-76
2023/06/06 04:39:43;;;;;;;3.13;2.90;;;16.40;99.90;;;;;;5051672;28;20214;-76
2023/06/06 04:42:08;;;;;;;2.90;2.70;;;16.50;99.90;;;;;;5051568;28;20228;-74
2023/06/06 04:44:41;;;;;;;2.83;2.60;;;16.50;99.90;;;;;;5051551;28;20291;-74
2023/06/06 04:47:08;;;;;;;3.40;2.60;;;16.60;99.90;;;;;;5050930;28;20258;-74
2023/06/06 04:49:35;;;;;;;4.00;2.90;;;16.70;99.90;;;;;;5049992;28;20187;-74
2023/06/06 04:52:19;;;;;;;2.90;2.70;;;16.90;99.90;;;;;;5050456;28;20227;-72
2023/06/06 04:54:45;;;;;;;3.67;2.60;;;17.30;99.90;;;;;;5050910;28;20198;-74
2023/06/06 04:57:19;;;;;;;2.50;2.30;;;17.70;99.90;;;;;;5037940;28;20213;-75
2023/06/06 04:59:52;;;;;;;2.63;2.42;;;17.90;99.90;;;;;;5049981;28;20206;-74
2023/06/06 05:02:22;;;;;;;2.50;2.30;;;18.10;99.90;;;;;;5051402;28;20205;-74
2023/06/06 05:04:50;;;;;;;3.28;2.97;;;18.20;99.90;;;;;;5048121;28;20185;-73
2023/06/06 05:07:15;;;;;;;2.75;2.55;;;18.10;99.90;;;;;;5050356;28;20170;-74
2023/06/06 05:09:41;;;;;;;2.75;2.55;;;18.20;99.90;;;;;;5050666;28;20247;-74
2023/06/06 05:12:07;;;;;;;2.70;2.50;;;18.30;99.90;;;;;;5050957;28;20285;-73
2023/06/06 05:14:32;;;;;;;3.15;2.80;;;18.20;99.90;;;;;;5048414;28;20210;-74
2023/06/06 05:16:58;;;;;;;3.08;2.75;;;18.10;99.90;;;;;;5049422;28;20181;-74
2023/06/06 05:19:23;;;;;;;4.00;2.60;;;18.10;99.90;;;;;;5050122;28;20205;-74
2023/06/06 05:21:49;;;;;;;3.07;2.87;;;18.10;99.90;;;;;;5049576;28;20174;-75
2023/06/06 05:24:15;;;;;;;2.70;2.50;;;18.40;99.90;;;;;;5049071;28;20688;-75
2023/06/06 05:26:41;;;;;;;2.72;2.53;;;18.60;99.90;;;;;;5049703;28;20175;-75
2023/06/06 05:29:07;;;;;;;2.67;2.47;;;18.70;99.90;;;;;;5050198;28;20201;-75
2023/06/06 05:31:33;;;;;;;4.13;2.73;;;18.40;99.90;;;;;;5050005;28;20206;-75
2023/06/06 05:33:59;;;;;;;5.03;2.77;;;18.40;99.90;;;;;;5046438;28;20197;-75
2023/06/06 05:36:25;;;;;;;4.53;2.80;;;18.40;99.90;;;;;;5051112;28;20261;-75
2023/06/06 05:38:51;;;;;;;4.87;2.77;;;18.60;99.90;;;;;;5050738;28;20712;-75
2023/06/06 05:41:18;;;;;;;3.37;3.07;;;18.60;99.90;;;;;;5049717;28;20186;-75
2023/06/06 05:43:47;;;;;;;3.03;2.80;;;18.70;99.90;;;;;;5047971;28;20189;-75
2023/06/06 05:46:13;;;;;;;2.90;2.60;;;18.70;99.90;;;;;;5048968;28;20261;-74
2023/06/06 05:48:39;;;;;;;3.00;2.70;;;19.00;99.90;;;;;;5050642;28;20538;-75
2023/06/06 05:51:05;;;;;;;3.30;3.00;;;19.30;99.90;;;;;;5050707;28;20205;-74
2023/06/06 05:53:31;;;;;;;2.70;2.50;;;19.00;99.90;;;;;;5050346;28;20194;-74
2023/06/06 05:55:56;;;;;;;2.90;2.70;;;18.80;99.90;;;;;;5050309;28;20239;-74
2023/06/06 05:58:22;;;;;;;3.40;3.10;;;18.70;99.90;;;;;;5050711;28;20180;-74
2023/06/06 06:00:47;;;;;;;3.20;2.93;;;18.80;99.90;;;;;;5050498;28;20202;-74
2023/06/06 06:03:14;;;;;;;3.45;2.83;;;18.90;99.90;;;;;;5076059;22;20232;-76
2023/06/06 06:05:40;;;;;;;3.53;3.23;;;19.00;99.90;;;;;;5055195;28;20162;-77
2023/06/06 06:08:06;;;;;;;3.08;2.83;;;19.10;99.90;;;;;;5074604;28;20554;-76
2023/06/06 06:10:33;;;;;;;3.00;2.80;;;19.00;99.90;;;;;;5074164;28;20178;-78
2023/06/06 06:13:00;;;;;;;2.93;2.73;;;18.80;99.90;;;;;;5074577;28;20550;-75
2023/06/06 06:15:26;;;;;;;3.30;3.00;;;18.80;99.90;;;;;;5072164;28;20332;-76
2023/06/06 06:17:52;;;;;;;3.13;2.63;;;18.90;99.90;;;;;;5055324;28;20182;-77
2023/06/06 06:20:19;;;;;;;2.60;2.33;;;18.90;99.90;;;;;;5070723;28;20198;-76
2023/06/06 06:22:46;;;;;;;3.07;2.80;;;19.00;99.90;;;;;;5073596;28;20173;-78
2023/06/06 06:25:16;;;;;;;3.17;2.87;;;19.00;99.90;;;;;;5059424;28;20186;-78
2023/06/06 06:27:44;;;;;;;3.30;3.00;;;19.00;99.90;;;;;;5074169;28;20170;-74
2023/06/06 06:30:10;;;;;;;3.30;2.93;;;19.20;99.90;;;;;;5050409;28;20170;-78
2023/06/06 06:32:38;;;;;;;3.17;2.47;;;19.20;99.90;;;;;;5074473;28;20174;-78
2023/06/06 06:35:05;;;;;;;3.40;2.87;;;19.20;99.90;;;;;;5053810;28;20212;-74
2023/06/06 06:37:32;;;;;;;2.95;2.70;;;19.30;99.90;;;;;;5058177;28;20177;-78
2023/06/06 06:39:58;;;;;;;2.60;2.40;;;19.30;99.90;;;;;;5081089;28;20194;-77
2023/06/06 06:42:24;;;;;;;4.30;2.80;;;19.30;99.90;;;;;;5078597;28;20211;-75
2023/06/06 06:44:50;;;;;;;2.87;2.67;;;19.30;99.90;;;;;;5061209;28;20251;-76
2023/06/06 06:47:16;;;;;;;3.55;2.88;;;19.30;99.90;;;;;;5079611;28;20169;-78
2023/06/06 06:49:42;;;;;;;3.47;2.67;;;19.40;99.90;;;;;;5067686;28;20204;-77
2023/06/06 06:52:11;;;;;;;2.83;2.63;;;19.70;99.90;;;;;;5078553;28;20176;-77
2023/06/06 06:54:58;;;;;;;2.70;2.45;;;19.70;99.90;;;;;;5061251;28;20221;-77
2023/06/06 06:57:26;;;;;;;3.05;2.85;;;19.80;99.90;;;;;;5044697;28;20840;-77
2023/06/06 06:59:56;;;;;;;2.83;2.58;;;20.20;99.90;;;;;;5053495;28;20236;-76
2023/06/06 07:02:28;;;;;;;2.90;2.70;;;20.00;99.90;;;;;;5074936;28;20179;-76
2023/06/06 07:04:57;;;;;;;2.83;2.60;;;19.90;99.90;;;;;;5076137;28;20259;-78
2023/06/06 07:07:23;;;;;;;2.72;2.47;;;20.00;99.90;;;;;;5060298;28;20170;-76
2023/06/06 07:09:49;;;;;;;2.85;2.63;;;20.10;99.90;;;;;;5080446;28;20181;-75
2023/06/06 07:12:15;;;;;;;2.95;2.40;;;20.30;99.90;;;;;;5078055;28;20202;-75
2023/06/06 07:14:40;;;;;;;3.33;2.80;;;20.40;99.90;;;;;;5068747;28;20542;-75
2023/06/06 07:17:07;;;;;;;3.70;3.38;;;20.50;99.90;;;;;;5085601;28;20686;-79
2023/06/06 07:19:36;;;;;;;2.63;2.40;;;20.40;99.90;;;;;;5068076;28;20664;-76
2023/06/06 07:22:05;;;;;;;3.22;2.90;;;20.70;99.90;;;;;;5073241;28;20201;-77
2023/06/06 07:24:31;;;;;;;4.10;2.40;;;20.70;99.90;;;;;;5082702;28;20242;-74
2023/06/06 07:26:57;;;;;;;3.05;2.85;;;20.70;99.90;;;;;;5082661;28;20173;-76
2023/06/06 07:29:23;;;;;;;4.53;2.58;;;20.80;99.90;;;;;;5079813;28;20185;-77
2023/06/06 07:31:49;;;;;;;4.75;2.90;;;20.90;99.90;;;;;;5088859;28;20188;-75
2023/06/06 07:34:15;;;;;;;4.10;2.83;;;20.80;99.90;;;;;;5080037;28;20603;-76
2023/06/06 07:36:41;;;;;;;6.82;2.50;;;20.80;99.90;;;;;;5068475;28;20283;-76
2023/06/06 07:39:06;;;;;;;2.22;2.10;;;21.00;99.90;;;;;;5083064;28;20212;-77
2023/06/06 07:41:33;;;;;;;4.25;2.72;;;21.10;99.90;;;;;;5052228;28;20173;-76
2023/06/06 07:43:59;;;;;;;2.92;2.72;;;21.20;99.90;;;;;;5063265;28;20261;-77
2023/06/06 07:46:25;;;;;;;3.17;2.50;;;21.10;99.90;;;;;;5092136;28;20212;-78
2023/06/06 07:48:51;;;;;;;4.28;2.90;;;21.00;99.90;;;;;;5083142;28;20253;-76
2023/06/06 07:51:17;;;;;;;2.97;2.70;;;21.00;99.90;;;;;;5089277;28;20578;-77
2023/06/06 07:53:43;;;;;;;4.60;3.00;;;21.20;99.90;;;;;;5084760;28;20217;-76
2023/06/06 07:56:09;;;;;;;5.55;3.15;;;21.30;99.90;;;;;;5069150;28;20238;-76
2023/06/06 07:58:40;;;;;;;3.53;2.73;;;21.20;99.90;;;;;;5081404;28;20197;-78
2023/06/06 08:01:07;;;;;;;2.70;2.53;;;21.40;99.90;;;;;;5093593;28;20412;-75
2023/06/06 08:03:32;;;;;;;3.53;2.70;;;21.80;99.90;;;;;;5074066;28;20259;-77
2023/06/06 08:05:58;;;;;;;3.08;2.83;;;21.70;99.90;;;;;;5079892;28;20252;-76
2023/06/06 08:08:26;;;;;;;3.45;2.50;;;21.70;99.90;;;;;;5088401;28;20200;-76
2023/06/06 08:10:53;;;;;;;3.00;2.80;;;21.90;99.90;;;;;;5059951;28;20174;-75
2023/06/06 08:13:21;;;;;;;2.85;2.65;;;21.70;99.90;;;;;;5059552;28;20277;-77
2023/06/06 08:15:47;;;;;;;3.80;2.75;;;21.90;99.90;;;;;;5072565;28;20189;-78
2023/06/06 08:18:13;;;;;;;2.90;2.70;;;22.00;99.90;;;;;;5077467;28;20576;-76
2023/06/06 08:20:39;;;;;;;5.45;2.75;;;21.90;99.90;;;;;;5060240;28;20193;-78
2023/06/06 08:23:04;;;;;;;2.63;2.42;;;22.10;99.90;;;;;;5070822;28;20239;-77
2023/06/06 08:25:30;;;;;;;3.28;2.58;;;22.20;99.90;;;;;;5051188;28;20169;-77
2023/06/06 08:27:58;;;;;;;3.08;2.85;;;22.00;99.90;;;;;;5076872;28;20169;-77
2023/06/06 08:30:23;;;;;;;3.13;2.80;;;22.10;99.90;;;;;;5072177;28;20197;-77
2023/06/06 08:32:50;;;;;;;2.83;2.63;;;22.50;99.90;;;;;;5059139;28;20170;-78
2023/06/06 08:35:16;;;;;;;2.83;2.38;;;22.80;99.90;;;;;;5074645;28;20174;-76
2023/06/06 08:37:41;;;;;;;3.03;2.83;;;22.80;99.90;;;;;;5074701;28;20577;-76
2023/06/06 08:40:09;;;;;;;4.28;2.72;;;22.60;99.90;;;;;;5073700;28;20208;-76
2023/06/06 08:42:40;;;;;;;4.13;2.80;;;22.70;99.90;;;;;;5073327;28;20189;-74
2023/06/06 08:45:07;;;;;;;3.25;2.95;;;22.70;99.90;;;;;;5068611;28;20253;-74
2023/06/06 08:47:34;;;;;;;2.97;2.70;;;22.90;99.90;;;;;;5054747;28;20181;-77
2023/06/06 08:50:01;;;;;;;3.15;2.85;;;23.10;99.90;;;;;;5074314;28;20651;-76
2023/06/06 08:52:27;;;;;;;2.92;2.42;;;23.00;99.90;;;;;;5074050;28;20207;-77
2023/06/06 08:54:53;;;;;;;3.35;2.90;;;23.10;99.90;;;;;;5057357;28;20281;-75
2023/06/06 08:57:19;;;;;;;2.85;2.60;;;22.90;99.90;;;;;;5056440;28;20192;-77
2023/06/06 08:59:45;;;;;;;2.72;2.53;;;23.30;99.90;;;;;;5055892;28;20201;-76
2023/06/06 09:02:11;;;;;;;2.72;2.53;;;23.40;99.90;;;;;;5063282;28;20269;-76
2023/06/06 09:04:37;;;;;;;2.95;2.75;;;23.20;99.90;;;;;;5074430;28;20838;-77
2023/06/06 09:07:08;;;;;;;3.22;2.80;;;23.40;99.90;;;;;;5073587;28;20173;-77
2023/06/06 09:09:36;;;;;;;2.63;2.42;;;23.40;99.90;;;;;;5073849;28;20245;-76
2023/06/06 09:12:02;;;;;;;2.53;2.42;;;23.40;99.90;;;;;;5075302;28;20250;-76
2023/06/06 09:14:27;;;;;;;3.00;2.80;;;23.50;99.90;;;;;;5081161;28;20277;-74
2023/06/06 09:16:53;;;;;;;3.35;3.08;;;23.40;99.90;;;;;;5075713;28;20182;-76
2023/06/06 09:19:25;;;;;;;6.88;2.83;;;23.60;99.90;;;;;;5055842;28;20251;-77
2023/06/06 09:21:51;;;;;;;3.72;2.83;;;23.90;99.90;;;;;;5073800;28;20166;-76
2023/06/06 09:24:17;;;;;;;3.47;2.72;;;23.90;99.90;;;;;;5072842;28;20280;-78
2023/06/06 09:26:42;;;;;;;2.85;2.65;;;23.90;99.90;;;;;;5054768;28;20238;-77
2023/06/06 09:29:08;;;;;;;3.17;2.97;;;23.60;99.90;;;;;;5035544;28;20581;-76
2023/06/06 09:31:37;;;;;;;3.28;3.00;;;23.70;99.90;;;;;;5063901;28;20201;-77
2023/06/06 09:34:04;;;;;;;4.18;2.70;;;23.60;99.90;;;;;;5043225;28;20220;-77
2023/06/06 09:36:31;;;;;;;2.97;2.70;;;23.50;99.90;;;;;;5074448;28;20204;-77
2023/06/06 09:39:13;;;;;;;6.15;2.70;;;23.60;99.90;;;;;;5074890;28;20189;-77
2023/06/06 09:41:48;;;;;;;2.78;2.58;;;23.70;99.90;;;;;;5056329;28;20668;-76
2023/06/06 09:44:25;;;;;;;2.60;2.40;;;23.80;99.90;;;;;;5056003;28;20336;-76
2023/06/06 09:47:02;;;;;;;2.53;2.42;;;23.80;99.90;;;;;;5074740;28;20174;-77
2023/06/06 09:49:37;;;;;;;2.78;2.58;;;23.90;99.90;;;;;;5074743;28;20536;-76
2023/06/06 09:52:12;;;;;;;3.50;3.20;;;23.90;99.90;;;;;;5074607;28;20191;-77
2023/06/06 09:54:43;;;;;;;2.97;2.78;;;24.20;99.90;;;;;;5074956;28;20208;-77
2023/06/06 09:57:13;;;;;;;2.95;2.75;;;24.90;99.90;;;;;;5076204;28;20178;-76
2023/06/06 09:59:40;;;;;;;2.67;2.35;;;25.00;99.90;;;;;;5057336;28;20193;-78
2023/06/06 10:02:08;;;;;;;3.97;3.00;;;24.80;99.90;;;;;;5075707;28;20183;-77
2023/06/06 10:04:35;;;;;;;2.85;2.65;;;25.20;99.90;;;;;;5075239;28;20233;-76
2023/06/06 10:07:05;;;;;;;3.17;2.83;;;25.20;99.90;;;;;;5058228;28;20174;-76
2023/06/06 10:09:32;;;;;;;2.92;2.60;;;24.60;99.90;;;;;;5074723;28;20181;-75
2023/06/06 10:11:58;;;;;;;3.05;2.78;;;24.70;99.90;;;;;;5076127;28;20201;-77
2023/06/06 10:14:25;;;;;;;2.72;2.50;;;24.70;99.90;;;;;;5077292;28;20204;-76
2023/06/06 10:16:52;;;;;;;3.10;2.90;;;24.70;99.90;;;;;;5060053;28;20174;-76
2023/06/06 10:19:19;;;;;;;2.67;2.47;;;25.10;99.90;;;;;;5078658;28;20563;-77
2023/06/06 10:21:45;;;;;;;4.28;2.95;;;25.20;99.90;;;;;;5078895;28;20178;-77
2023/06/06 10:24:11;;;;;;;3.50;2.67;;;25.10;99.90;;;;;;5077177;28;20759;-76
2023/06/06 10:26:50;;;;;;;4.45;2.67;;;25.20;99.90;;;;;;5078736;28;20245;-77
2023/06/06 10:29:43;;;;;;;3.58;2.58;;;25.30;99.90;;;;;;5056035;28;20185;-77
2023/06/06 10:32:15;;;;;;;3.08;2.88;;;25.40;99.90;;;;;;5073595;28;20833;-77
2023/06/06 10:34:45;;;;;;;3.30;3.00;;;25.50;99.90;;;;;;5076795;28;20196;-77
2023/06/06 10:37:15;;;;;;;2.92;2.63;;;25.10;99.90;;;;;;5076315;28;20173;-78
2023/06/06 10:39:45;;;;;;;2.97;2.70;;;25.50;99.90;;;;;;5077663;28;20276;-77
2023/06/06 10:42:11;;;;;;;2.70;2.50;;;25.30;99.70;;;;;;5076546;28;20819;-75
2023/06/06 10:44:46;;;;;;;2.72;2.30;;;25.50;99.90;;;;;;5076439;28;20198;-77
2023/06/06 10:47:20;;;;;;;2.90;2.70;;;25.20;99.70;;;;;;5078078;28;20181;-77
2023/06/06 10:52:45;;;;;;;2.80;2.60;;;25.30;97.60;;;;;;5066262;28;20189;-77
2023/06/06 10:55:15;;;;;;;2.50;2.30;;;25.20;98.40;;;;;;5076114;28;20536;-77
2023/06/06 10:58:02;;;;;;;4.38;2.90;;;25.00;96.60;;;;;;5077443;28;20166;-77
2023/06/06 11:00:32;;;;;;;2.63;2.50;;;24.80;96.80;;;;;;5057269;28;20308;-76
2023/06/06 11:03:03;;;;;;;2.55;2.35;;;24.80;95.30;;;;;;5052337;28;20557;-76
2023/06/06 11:05:28;;;;;;;2.88;2.67;;;25.30;97.00;;;;;;5076686;28;20182;-75
2023/06/06 11:08:01;;;;;;;6.85;2.90;;;25.30;96.60;;;;;;5058632;28;20172;-75
2023/06/06 11:10:26;;;;;;;2.88;2.50;;;25.40;95.30;;;;;;5058781;28;20288;-77
2023/06/06 11:12:53;;;;;;;4.97;2.40;;;25.40;93.80;;;;;;5079411;28;20201;-75
2023/06/06 11:15:31;;;;;;;2.80;2.60;;;25.70;96.30;;;;;;5077733;28;20170;-77
2023/06/06 11:18:04;;;;;;;3.25;2.80;;;25.80;94.70;;;;;;5063508;28;20173;-75
2023/06/06 11:20:41;;;;;;;2.75;2.63;;;26.20;93.90;;;;;;5076638;28;20194;-77
2023/06/06 11:23:10;;;;;;;3.00;2.78;;;25.80;95.00;;;;;;5064201;28;20235;-76
2023/06/06 11:25:36;;;;;;;3.20;2.92;;;26.10;94.70;;;;;;5059058;28;20673;-78
2023/06/06 11:28:03;;;;;;;2.58;2.40;;;26.20;92.80;;;;;;5076965;28;20174;-77
2023/06/06 11:30:35;;;;;;;4.75;3.05;;;25.80;87.90;;;;;;5075999;28;20173;-76
2023/06/06 11:33:06;;;;;;;2.63;2.42;;;25.80;91.50;;;;;;5068615;28;21660;-75
2023/06/06 11:35:33;;;;;;;2.90;2.70;;;25.90;89.60;;;;;;5055147;28;20209;-76
2023/06/06 11:37:58;;;;;;;2.75;2.55;;;25.90;90.10;;;;;;5080180;28;20185;-77
2023/06/06 11:40:25;;;;;;;2.90;2.70;;;26.00;87.60;;;;;;5081024;28;20206;-75
2023/06/06 11:42:51;;;;;;;4.07;2.60;;;26.20;87.40;;;;;;5076285;28;20189;-78
2023/06/06 11:45:18;;;;;;;3.08;2.88;;;26.30;90.60;;;;;;5086338;28;20173;-75
2023/06/06 11:47:44;;;;;;;3.70;3.15;;;26.70;84.10;;;;;;5086879;28;20177;-77
2023/06/06 11:50:11;;;;;;;4.38;2.78;;;26.80;88.40;;;;;;5062451;28;20173;-76
2023/06/06 11:53:05;;;;;;;3.38;2.88;;;27.10;80.70;;;;;;5058024;28;20231;-77
2023/06/06 11:55:37;;;;;;;3.58;2.88;;;27.10;81.50;;;;;;5081962;28;20781;-78
2023/06/06 11:58:04;;;;;;;2.60;2.40;;;27.20;78.30;;;;;;5085727;28;20634;-77
2023/06/06 12:00:30;;;;;;;3.15;2.92;;;27.50;72.80;;;;;;5060338;28;20220;-75
2023/06/06 12:02:59;;;;;;;3.63;2.60;;;27.00;73.00;;;;;;5045231;28;20224;-76
2023/06/06 12:05:25;;;;;;;3.20;3.00;;;27.10;74.90;;;;;;5060597;22;20261;-75
2023/06/06 12:07:54;;;;;;;2.90;2.70;;;27.30;72.10;;;;;;5045686;28;20640;-75
2023/06/06 12:10:25;;;;;;;2.78;2.60;;;27.90;66.00;;;;;;5032412;28;20175;-76
2023/06/06 12:12:50;;;;;;;2.50;2.30;;;27.50;67.70;;;;;;5041312;28;20258;-75
2023/06/06 12:15:16;;;;;;;2.60;2.40;;;26.60;70.10;;;;;;5036818;28;20275;-76
2023/06/06 12:17:42;;;;;;;2.88;2.67;;;25.70;64.30;;;;;;5037497;28;20183;-74
2023/06/06 12:20:07;;;;;;;3.45;2.55;;;25.30;67.70;;;;;;5045769;28;20198;-76
2023/06/06 12:22:35;;;;;;;2.80;2.60;;;25.10;69.50;;;;;;5043747;28;20181;-75
2023/06/06 12:25:03;;;;;;;2.88;2.67;;;25.10;70.00;;;;;;5040850;28;20187;-75
2023/06/06 12:27:33;;;;;;;4.07;3.08;;;25.40;68.90;;;;;;5038993;28;20179;-74
2023/06/06 12:30:00;;;;;;;3.03;2.83;;;26.80;68.50;;;;;;5036383;28;20179;-74
2023/06/06 12:32:26;;;;;;;3.70;2.70;;;27.20;59.60;;;;;;5034730;28;20665;-75
2023/06/06 12:34:59;;;;;;;3.45;3.00;;;27.50;63.20;;;;;;5032879;28;20202;-74
2023/06/06 12:37:42;;;;;;;4.07;3.03;;;27.10;60.70;;;;;;5032988;28;20539;-73
2023/06/06 12:40:20;;;;;;;3.22;2.88;;;27.20;61.20;;;;;;5032037;28;20297;-74
2023/06/06 12:43:00;;;;;;;3.63;2.80;;;27.60;57.00;;;;;;5020896;28;20195;-74
2023/06/06 12:45:27;;;;;;;5.55;2.63;;;26.80;58.50;;;;;;5031983;28;20194;-75
2023/06/06 12:47:55;;;;;;;3.22;2.80;;;26.40;63.40;;;;;;5031687;28;20171;-74
2023/06/06 12:50:22;;;;;;;2.90;2.70;;;26.00;63.20;;;;;;5037844;28;20177;-74
2023/06/06 12:52:49;;;;;;;3.65;2.80;;;25.50;63.30;;;;;;5031296;28;20673;-74
2023/06/06 12:55:15;;;;;;;3.28;2.97;;;25.60;64.00;;;;;;5031509;28;20256;-73